sensor_id;sensor_type;location;lat;lon;timestamp;temperature;humidity
12111;DHT22;6119;52.372;8.990;2023-09-12T00:01:18;23.30;99.90
12111;DHT22;6119;52.372;8.990;2023-09-12T00:04:05;23.30;99.90
12111;DHT22;6119;52.372;8.990;2023-09-12T00:06:52;23.20;99.90
12111;DHT22;6119;52.372;8.990;2023-09-12T00:09:39;23.30;99.90
12111;DHT22;6119;52.372;8.990;2023-09-12T00:12:26;23.30;99.90
12111;DHT22;6119;52.372;8.990;2023-09-12T00:15:14;23.40;99.90
12111;DHT22;6119;52.372;8.990;2023-09-12T00:18:01;23.20;99.90
12111;DHT22;6119;52.372;8.990;2023-09-12T00:20:49;23.20;99.90
12111;DHT22;6119;52.372;8.990;2023-09-12T00:23:35;23.20;99.90
12111;DHT22;6119;52.372;8.990;2023-09-12T00:26:23;23.20;99.90
12111;DHT22;6119;52.372;8.990;2023-09-12T00:29:10;23.20;99.90
12111;DHT22;6119;52.372;8.990;2023-09-12T00:31:57;23.20;99.90
12111;DHT22;6119;52.372;8.990;2023-09-12T00:34:43;22.90;99.90
12111;DHT22;6119;52.372;8.990;2023-09-12T00:37:30;23.00;99.90
12111;DHT22;6119;52.372;8.990;2023-09-12T00:40:17;23.00;99.90
12111;DHT22;6119;52.372;8.990;2023-09-12T00:43:05;22.90;99.90
12111;DHT22;6119;52.372;8.990;2023-09-12T00:45:52;22.90;99.90
12111;DHT22;6119;52.372;8.990;2023-09-12T00:48:39;22.80;99.90
12111;DHT22;6119;52.372;8.990;2023-09-12T00:51:26;22.60;99.90
12111;DHT22;6119;52.372;8.990;2023-09-12T00:54:13;22.60;99.90
12111;DHT22;6119;52.372;8.990;2023-09-12T00:57:00;22.60;99.90
12111;DHT22;6119;52.372;8.990;2023-09-12T00:59:49;22.50;99.90
12111;DHT22;6119;52.372;8.990;2023-09-12T01:02:37;22.60;99.90
12111;DHT22;6119;52.372;8.990;2023-09-12T01:05:24;22.50;99.90
12111;DHT22;6119;52.372;8.990;2023-09-12T01:08:10;22.50;99.90
12111;DHT22;6119;52.372;8.990;2023-09-12T01:10:58;22.40;99.90
12111;DHT22;6119;52.372;8.990;2023-09-12T01:13:45;22.30;99.90
12111;DHT22;6119;52.372;8.990;2023-09-12T01:16:33;22.50;99.90
12111;DHT22;6119;52.372;8.990;2023-09-12T01:19:20;22.50;99.90
12111;DHT22;6119;52.372;8.990;2023-09-12T01:22:26;22.50;99.90
12111;DHT22;6119;52.372;8.990;2023-09-12T01:28:30;22.30;99.90
12111;DHT22;6119;52.372;8.990;2023-09-12T01:31:17;22.30;99.90
12111;DHT22;6119;52.372;8.990;2023-09-12T01:34:08;22.30;99.90
12111;DHT22;6119;52.372;8.990;2023-09-12T01:36:56;22.20;99.90
12111;DHT22;6119;52.372;8.990;2023-09-12T01:39:42;22.20;99.90
12111;DHT22;6119;52.372;8.990;2023-09-12T01:42:34;21.90;99.90
12111;DHT22;6119;52.372;8.990;2023-09-12T01:45:23;21.90;99.90
12111;DHT22;6119;52.372;8.990;2023-09-12T01:48:11;22.00;99.90
12111;DHT22;6119;52.372;8.990;2023-09-12T01:50:59;22.00;99.90
12111;DHT22;6119;52.372;8.990;2023-09-12T01:53:46;22.10;99.90
12111;DHT22;6119;52.372;8.990;2023-09-12T01:56:33;22.00;99.90
12111;DHT22;6119;52.372;8.990;2023-09-12T01:59:21;21.80;99.90
12111;DHT22;6119;52.372;8.990;2023-09-12T02:02:09;22.00;99.90
12111;DHT22;6119;52.372;8.990;2023-09-12T02:05:11;22.10;99.90
12111;DHT22;6119;52.372;8.990;2023-09-12T02:08:01;22.10;99.90
12111;DHT22;6119;52.372;8.990;2023-09-12T02:10:48;22.20;99.90
12111;DHT22;6119;52.372;8.990;2023-09-12T02:13:34;22.30;99.90
12111;DHT22;6119;52.372;8.990;2023-09-12T02:16:21;22.30;99.90
12111;DHT22;6119;52.372;8.990;2023-09-12T02:19:09;22.20;99.90
12111;DHT22;6119;52.372;8.990;2023-09-12T02:21:56;22.20;99.90
12111;DHT22;6119;52.372;8.990;2023-09-12T02:24:42;22.20;99.90
12111;DHT22;6119;52.372;8.990;2023-09-12T02:27:29;22.20;99.90
12111;DHT22;6119;52.372;8.990;2023-09-12T02:30:15;21.80;99.90
12111;DHT22;6119;52.372;8.990;2023-09-12T02:33:02;21.80;99.90
12111;DHT22;6119;52.372;8.990;2023-09-12T02:35:50;21.80;99.90
12111;DHT22;6119;52.372;8.990;2023-09-12T02:38:37;21.90;99.90
12111;DHT22;6119;52.372;8.990;2023-09-12T02:41:23;21.70;99.90
12111;DHT22;6119;52.372;8.990;2023-09-12T02:44:10;21.40;99.90
12111;DHT22;6119;52.372;8.990;2023-09-12T02:46:57;21.70;99.90
12111;DHT22;6119;52.372;8.990;2023-09-12T02:49:43;21.80;99.90
12111;DHT22;6119;52.372;8.990;2023-09-12T02:52:31;21.80;99.90
12111;DHT22;6119;52.372;8.990;2023-09-12T02:55:18;21.60;99.90
12111;DHT22;6119;52.372;8.990;2023-09-12T02:58:05;21.60;99.90
12111;DHT22;6119;52.372;8.990;2023-09-12T03:00:51;21.70;99.90
12111;DHT22;6119;52.372;8.990;2023-09-12T03:03:39;21.70;99.90
12111;DHT22;6119;52.372;8.990;2023-09-12T03:06:28;21.80;99.90
12111;DHT22;6119;52.372;8.990;2023-09-12T03:09:16;21.90;99.90
12111;DHT22;6119;52.372;8.990;2023-09-12T03:12:05;21.80;99.90
12111;DHT22;6119;52.372;8.990;2023-09-12T03:14:51;21.80;99.90
12111;DHT22;6119;52.372;8.990;2023-09-12T03:17:38;21.80;99.90
12111;DHT22;6119;52.372;8.990;2023-09-12T03:20:25;21.70;99.90
12111;DHT22;6119;52.372;8.990;2023-09-12T03:23:11;21.60;99.90
12111;DHT22;6119;52.372;8.990;2023-09-12T03:26:02;21.30;99.90
12111;DHT22;6119;52.372;8.990;2023-09-12T03:28:49;21.10;99.90
12111;DHT22;6119;52.372;8.990;2023-09-12T03:31:36;21.10;99.90
12111;DHT22;6119;52.372;8.990;2023-09-12T03:34:22;21.10;99.90
12111;DHT22;6119;52.372;8.990;2023-09-12T03:37:09;21.10;99.90
12111;DHT22;6119;52.372;8.990;2023-09-12T03:39:55;21.10;99.90
12111;DHT22;6119;52.372;8.990;2023-09-12T03:42:43;21.10;99.90
12111;DHT22;6119;52.372;8.990;2023-09-12T03:45:30;21.20;99.90
12111;DHT22;6119;52.372;8.990;2023-09-12T03:48:17;21.20;99.90
12111;DHT22;6119;52.372;8.990;2023-09-12T03:51:03;21.20;99.90
12111;DHT22;6119;52.372;8.990;2023-09-12T03:53:50;21.30;99.90
12111;DHT22;6119;52.372;8.990;2023-09-12T03:56:36;21.30;99.90
12111;DHT22;6119;52.372;8.990;2023-09-12T03:59:24;21.20;99.90
12111;DHT22;6119;52.372;8.990;2023-09-12T04:02:11;21.20;99.90
12111;DHT22;6119;52.372;8.990;2023-09-12T04:04:57;21.20;99.90
12111;DHT22;6119;52.372;8.990;2023-09-12T04:07:45;21.20;99.90
12111;DHT22;6119;52.372;8.990;2023-09-12T04:10:32;21.20;99.90
12111;DHT22;6119;52.372;8.990;2023-09-12T04:13:19;20.80;99.90
12111;DHT22;6119;52.372;8.990;2023-09-12T04:16:07;21.00;99.90
12111;DHT22;6119;52.372;8.990;2023-09-12T04:18:54;21.10;99.90
12111;DHT22;6119;52.372;8.990;2023-09-12T04:21:40;20.90;99.90
12111;DHT22;6119;52.372;8.990;2023-09-12T04:24:27;21.10;99.90
12111;DHT22;6119;52.372;8.990;2023-09-12T04:27:14;21.10;99.90
12111;DHT22;6119;52.372;8.990;2023-09-12T04:30:01;21.10;99.90
12111;DHT22;6119;52.372;8.990;2023-09-12T04:32:49;21.10;99.90
12111;DHT22;6119;52.372;8.990;2023-09-12T04:35:35;21.10;99.90
12111;DHT22;6119;52.372;8.990;2023-09-12T04:38:22;20.90;99.90
12111;DHT22;6119;52.372;8.990;2023-09-12T04:41:12;20.90;99.90
12111;DHT22;6119;52.372;8.990;2023-09-12T04:44:01;20.90;99.90
12111;DHT22;6119;52.372;8.990;2023-09-12T04:46:47;20.90;99.90
12111;DHT22;6119;52.372;8.990;2023-09-12T04:49:36;20.90;99.90
12111;DHT22;6119;52.372;8.990;2023-09-12T04:52:23;20.90;99.90
12111;DHT22;6119;52.372;8.990;2023-09-12T04:55:09;20.90;99.90
12111;DHT22;6119;52.372;8.990;2023-09-12T04:57:56;20.90;99.90
12111;DHT22;6119;52.372;8.990;2023-09-12T05:00:42;20.80;99.90
12111;DHT22;6119;52.372;8.990;2023-09-12T05:03:29;20.90;99.90
12111;DHT22;6119;52.372;8.990;2023-09-12T05:06:18;20.80;99.90
12111;DHT22;6119;52.372;8.990;2023-09-12T05:09:05;20.80;99.90
12111;DHT22;6119;52.372;8.990;2023-09-12T05:11:54;20.80;99.90
12111;DHT22;6119;52.372;8.990;2023-09-12T05:14:41;20.80;99.90
12111;DHT22;6119;52.372;8.990;2023-09-12T05:17:27;20.90;99.90
12111;DHT22;6119;52.372;8.990;2023-09-12T05:20:14;20.90;99.90
12111;DHT22;6119;52.372;8.990;2023-09-12T05:23:02;20.90;99.90
12111;DHT22;6119;52.372;8.990;2023-09-12T05:25:49;20.90;99.90
12111;DHT22;6119;52.372;8.990;2023-09-12T05:28:36;21.00;99.90
12111;DHT22;6119;52.372;8.990;2023-09-12T05:31:22;21.00;99.90
12111;DHT22;6119;52.372;8.990;2023-09-12T05:34:09;20.90;99.90
12111;DHT22;6119;52.372;8.990;2023-09-12T05:36:56;20.90;99.90
12111;DHT22;6119;52.372;8.990;2023-09-12T05:39:44;20.90;99.90
12111;DHT22;6119;52.372;8.990;2023-09-12T05:42:31;20.90;99.90
12111;DHT22;6119;52.372;8.990;2023-09-12T05:45:18;20.90;99.90
12111;DHT22;6119;52.372;8.990;2023-09-12T05:48:05;20.90;99.90
12111;DHT22;6119;52.372;8.990;2023-09-12T05:50:52;20.90;99.90
12111;DHT22;6119;52.372;8.990;2023-09-12T05:53:39;20.80;99.90
12111;DHT22;6119;52.372;8.990;2023-09-12T05:56:27;20.80;99.90
12111;DHT22;6119;52.372;8.990;2023-09-12T05:59:14;20.90;99.90
12111;DHT22;6119;52.372;8.990;2023-09-12T06:02:00;20.90;99.90
12111;DHT22;6119;52.372;8.990;2023-09-12T06:04:47;20.90;99.90
12111;DHT22;6119;52.372;8.990;2023-09-12T06:07:34;20.90;99.90
12111;DHT22;6119;52.372;8.990;2023-09-12T06:10:23;20.90;99.90
12111;DHT22;6119;52.372;8.990;2023-09-12T06:13:11;20.90;99.90
12111;DHT22;6119;52.372;8.990;2023-09-12T06:15:58;20.80;99.90
12111;DHT22;6119;52.372;8.990;2023-09-12T06:18:45;20.80;99.90
12111;DHT22;6119;52.372;8.990;2023-09-12T06:21:33;20.80;99.90
12111;DHT22;6119;52.372;8.990;2023-09-12T06:24:20;20.80;99.90
12111;DHT22;6119;52.372;8.990;2023-09-12T06:27:07;20.80;99.90
12111;DHT22;6119;52.372;8.990;2023-09-12T06:29:55;20.70;99.90
12111;DHT22;6119;52.372;8.990;2023-09-12T06:32:42;20.70;99.90
12111;DHT22;6119;52.372;8.990;2023-09-12T06:35:29;20.70;99.90
12111;DHT22;6119;52.372;8.990;2023-09-12T06:38:15;20.70;99.90
12111;DHT22;6119;52.372;8.990;2023-09-12T06:41:02;20.80;99.90
12111;DHT22;6119;52.372;8.990;2023-09-12T06:43:49;20.80;99.90
12111;DHT22;6119;52.372;8.990;2023-09-12T06:46:37;20.80;99.90
12111;DHT22;6119;52.372;8.990;2023-09-12T06:49:23;20.70;99.90
12111;DHT22;6119;52.372;8.990;2023-09-12T06:52:10;20.70;99.90
12111;DHT22;6119;52.372;8.990;2023-09-12T06:54:57;20.70;99.90
12111;DHT22;6119;52.372;8.990;2023-09-12T06:57:44;20.60;99.90
12111;DHT22;6119;52.372;8.990;2023-09-12T07:00:31;20.50;99.90
12111;DHT22;6119;52.372;8.990;2023-09-12T07:03:20;20.60;99.90
12111;DHT22;6119;52.372;8.990;2023-09-12T07:06:07;20.60;99.90
12111;DHT22;6119;52.372;8.990;2023-09-12T07:08:53;20.50;99.90
12111;DHT22;6119;52.372;8.990;2023-09-12T07:11:40;20.60;99.90
12111;DHT22;6119;52.372;8.990;2023-09-12T07:14:27;20.70;99.90
12111;DHT22;6119;52.372;8.990;2023-09-12T07:17:14;20.80;99.90
12111;DHT22;6119;52.372;8.990;2023-09-12T07:20:02;20.80;99.90
12111;DHT22;6119;52.372;8.990;2023-09-12T07:22:52;20.80;99.90
12111;DHT22;6119;52.372;8.990;2023-09-12T07:25:39;20.60;99.90
12111;DHT22;6119;52.372;8.990;2023-09-12T07:28:26;20.90;99.90
12111;DHT22;6119;52.372;8.990;2023-09-12T07:31:13;20.90;99.90
12111;DHT22;6119;52.372;8.990;2023-09-12T07:34:00;20.90;99.90
12111;DHT22;6119;52.372;8.990;2023-09-12T07:36:52;20.80;99.90
12111;DHT22;6119;52.372;8.990;2023-09-12T07:39:40;20.60;99.90
12111;DHT22;6119;52.372;8.990;2023-09-12T07:42:26;20.30;99.90
12111;DHT22;6119;52.372;8.990;2023-09-12T07:45:13;20.50;99.90
12111;DHT22;6119;52.372;8.990;2023-09-12T07:48:00;20.60;99.90
12111;DHT22;6119;52.372;8.990;2023-09-12T07:50:46;20.60;99.90
12111;DHT22;6119;52.372;8.990;2023-09-12T07:53:35;20.60;99.90
12111;DHT22;6119;52.372;8.990;2023-09-12T07:56:22;20.50;99.90
12111;DHT22;6119;52.372;8.990;2023-09-12T07:59:08;20.50;99.90
12111;DHT22;6119;52.372;8.990;2023-09-12T08:01:57;20.40;99.90
12111;DHT22;6119;52.372;8.990;2023-09-12T08:04:44;20.50;99.90
12111;DHT22;6119;52.372;8.990;2023-09-12T08:07:31;20.30;99.90
12111;DHT22;6119;52.372;8.990;2023-09-12T08:10:19;20.40;99.90
12111;DHT22;6119;52.372;8.990;2023-09-12T08:13:06;20.30;99.90
12111;DHT22;6119;52.372;8.990;2023-09-12T08:15:53;20.40;99.90
12111;DHT22;6119;52.372;8.990;2023-09-12T08:18:40;20.30;99.90
12111;DHT22;6119;52.372;8.990;2023-09-12T08:21:27;20.20;99.90
12111;DHT22;6119;52.372;8.990;2023-09-12T08:24:14;20.20;99.90
12111;DHT22;6119;52.372;8.990;2023-09-12T08:27:02;20.20;99.90
12111;DHT22;6119;52.372;8.990;2023-09-12T08:29:50;20.30;99.90
12111;DHT22;6119;52.372;8.990;2023-09-12T08:32:37;20.30;99.90
12111;DHT22;6119;52.372;8.990;2023-09-12T08:35:25;20.30;99.90
12111;DHT22;6119;52.372;8.990;2023-09-12T08:38:12;20.30;99.90
12111;DHT22;6119;52.372;8.990;2023-09-12T08:41:00;20.20;99.90
12111;DHT22;6119;52.372;8.990;2023-09-12T08:43:48;20.30;99.90
12111;DHT22;6119;52.372;8.990;2023-09-12T08:46:35;20.30;99.90
12111;DHT22;6119;52.372;8.990;2023-09-12T08:49:23;20.30;99.90
12111;DHT22;6119;52.372;8.990;2023-09-12T08:52:10;20.10;99.90
12111;DHT22;6119;52.372;8.990;2023-09-12T08:54:57;20.20;99.90
12111;DHT22;6119;52.372;8.990;2023-09-12T08:57:44;20.20;99.90
12111;DHT22;6119;52.372;8.990;2023-09-12T09:00:35;20.20;99.90
12111;DHT22;6119;52.372;8.990;2023-09-12T09:03:23;20.20;99.90
12111;DHT22;6119;52.372;8.990;2023-09-12T09:06:11;20.10;99.90
12111;DHT22;6119;52.372;8.990;2023-09-12T09:08:58;20.20;99.90
12111;DHT22;6119;52.372;8.990;2023-09-12T09:11:46;20.10;99.90
12111;DHT22;6119;52.372;8.990;2023-09-12T09:14:33;20.00;99.90
12111;DHT22;6119;52.372;8.990;2023-09-12T09:17:22;20.00;99.90
12111;DHT22;6119;52.372;8.990;2023-09-12T09:20:26;20.00;99.90
12111;DHT22;6119;52.372;8.990;2023-09-12T09:23:13;20.10;99.90
12111;DHT22;6119;52.372;8.990;2023-09-12T09:26:00;19.80;99.90
12111;DHT22;6119;52.372;8.990;2023-09-12T09:29:03;19.90;99.90
12111;DHT22;6119;52.372;8.990;2023-09-12T09:31:51;20.00;99.90
12111;DHT22;6119;52.372;8.990;2023-09-12T09:34:40;20.10;99.90
12111;DHT22;6119;52.372;8.990;2023-09-12T09:37:27;20.10;99.90
12111;DHT22;6119;52.372;8.990;2023-09-12T09:40:15;20.00;99.90
12111;DHT22;6119;52.372;8.990;2023-09-12T09:43:03;20.00;99.90
12111;DHT22;6119;52.372;8.990;2023-09-12T09:45:49;19.90;99.90
12111;DHT22;6119;52.372;8.990;2023-09-12T09:48:36;20.00;99.90
12111;DHT22;6119;52.372;8.990;2023-09-12T09:51:24;20.00;99.90
12111;DHT22;6119;52.372;8.990;2023-09-12T09:54:11;20.10;99.90
12111;DHT22;6119;52.372;8.990;2023-09-12T09:56:59;20.10;99.90
12111;DHT22;6119;52.372;8.990;2023-09-12T09:59:49;20.10;99.90
12111;DHT22;6119;52.372;8.990;2023-09-12T10:02:38;20.10;99.90
12111;DHT22;6119;52.372;8.990;2023-09-12T10:05:28;20.10;99.90
12111;DHT22;6119;52.372;8.990;2023-09-12T10:08:17;20.10;99.90
12111;DHT22;6119;52.372;8.990;2023-09-12T10:11:04;20.10;99.90
12111;DHT22;6119;52.372;8.990;2023-09-12T10:13:53;20.10;99.90
12111;DHT22;6119;52.372;8.990;2023-09-12T10:16:45;20.10;99.90
12111;DHT22;6119;52.372;8.990;2023-09-12T10:19:38;20.00;99.90
12111;DHT22;6119;52.372;8.990;2023-09-12T10:22:34;20.00;99.90
12111;DHT22;6119;52.372;8.990;2023-09-12T10:25:23;20.10;99.90
12111;DHT22;6119;52.372;8.990;2023-09-12T10:28:11;20.10;99.90
12111;DHT22;6119;52.372;8.990;2023-09-12T10:31:00;20.10;99.90
12111;DHT22;6119;52.372;8.990;2023-09-12T10:33:49;20.10;99.90
12111;DHT22;6119;52.372;8.990;2023-09-12T10:36:38;20.10;99.90
12111;DHT22;6119;52.372;8.990;2023-09-12T10:39:27;20.10;99.90
12111;DHT22;6119;52.372;8.990;2023-09-12T10:42:16;20.10;99.90
12111;DHT22;6119;52.372;8.990;2023-09-12T10:45:06;20.10;99.90
12111;DHT22;6119;52.372;8.990;2023-09-12T10:47:53;20.10;99.90
12111;DHT22;6119;52.372;8.990;2023-09-12T10:50:40;20.00;99.90
12111;DHT22;6119;52.372;8.990;2023-09-12T10:53:27;20.00;99.90
12111;DHT22;6119;52.372;8.990;2023-09-12T10:56:17;20.00;99.90
12111;DHT22;6119;52.372;8.990;2023-09-12T10:59:13;20.00;99.90
12111;DHT22;6119;52.372;8.990;2023-09-12T11:02:27;20.00;99.90
12111;DHT22;6119;52.372;8.990;2023-09-12T11:05:37;20.00;99.90
12111;DHT22;6119;52.372;8.990;2023-09-12T11:08:24;20.00;99.90
12111;DHT22;6119;52.372;8.990;2023-09-12T11:11:17;20.00;99.90
12111;DHT22;6119;52.372;8.990;2023-09-12T11:14:05;20.00;99.90
12111;DHT22;6119;52.372;8.990;2023-09-12T11:17:24;20.00;99.90
12111;DHT22;6119;52.372;8.990;2023-09-12T11:20:12;20.10;99.90
12111;DHT22;6119;52.372;8.990;2023-09-12T11:23:10;20.00;99.90
12111;DHT22;6119;52.372;8.990;2023-09-12T11:26:04;20.00;99.90
12111;DHT22;6119;52.372;8.990;2023-09-12T11:28:52;20.10;99.90
12111;DHT22;6119;52.372;8.990;2023-09-12T11:31:40;20.10;99.90
12111;DHT22;6119;52.372;8.990;2023-09-12T11:34:35;20.10;99.90
12111;DHT22;6119;52.372;8.990;2023-09-12T11:37:24;20.10;99.90
12111;DHT22;6119;52.372;8.990;2023-09-12T11:40:22;20.20;99.90
12111;DHT22;6119;52.372;8.990;2023-09-12T11:43:19;20.10;99.90
12111;DHT22;6119;52.372;8.990;2023-09-12T11:46:07;20.20;99.90
12111;DHT22;6119;52.372;8.990;2023-09-12T11:48:56;20.40;99.90
12111;DHT22;6119;52.372;8.990;2023-09-12T11:51:49;20.50;99.90
12111;DHT22;6119;52.372;8.990;2023-09-12T11:54:36;20.60;99.90
12111;DHT22;6119;52.372;8.990;2023-09-12T11:57:25;20.80;99.90
12111;DHT22;6119;52.372;8.990;2023-09-12T12:00:13;20.80;99.90
12111;DHT22;6119;52.372;8.990;2023-09-12T12:03:00;20.90;99.90
12111;DHT22;6119;52.372;8.990;2023-09-12T12:05:48;21.10;99.90
12111;DHT22;6119;52.372;8.990;2023-09-12T12:08:36;21.30;99.90
12111;DHT22;6119;52.372;8.990;2023-09-12T12:11:27;21.40;99.90
12111;DHT22;6119;52.372;8.990;2023-09-12T12:14:15;21.60;99.90
12111;DHT22;6119;52.372;8.990;2023-09-12T12:17:07;21.70;99.90
12111;DHT22;6119;52.372;8.990;2023-09-12T12:19:54;21.80;99.90
12111;DHT22;6119;52.372;8.990;2023-09-12T12:22:41;21.90;99.90
12111;DHT22;6119;52.372;8.990;2023-09-12T12:25:32;22.30;99.90
12111;DHT22;6119;52.372;8.990;2023-09-12T12:28:20;22.20;99.90
12111;DHT22;6119;52.372;8.990;2023-09-12T12:31:07;22.20;99.90
12111;DHT22;6119;52.372;8.990;2023-09-12T12:33:56;22.30;99.90
12111;DHT22;6119;52.372;8.990;2023-09-12T12:37:04;22.40;99.90
12111;DHT22;6119;52.372;8.990;2023-09-12T12:39:51;22.60;99.90
12111;DHT22;6119;52.372;8.990;2023-09-12T12:42:44;22.60;99.90
12111;DHT22;6119;52.372;8.990;2023-09-12T12:45:52;22.70;99.90
12111;DHT22;6119;52.372;8.990;2023-09-12T12:48:43;22.80;99.90
12111;DHT22;6119;52.372;8.990;2023-09-12T12:51:31;22.80;99.90
12111;DHT22;6119;52.372;8.990;2023-09-12T12:54:22;23.00;99.90
12111;DHT22;6119;52.372;8.990;2023-09-12T12:57:10;23.20;99.90
12111;DHT22;6119;52.372;8.990;2023-09-12T12:59:59;23.30;99.90
12111;DHT22;6119;52.372;8.990;2023-09-12T13:02:46;23.30;99.90
12111;DHT22;6119;52.372;8.990;2023-09-12T13:05:33;23.10;99.90
12111;DHT22;6119;52.372;8.990;2023-09-12T13:08:19;23.20;99.90
12111;DHT22;6119;52.372;8.990;2023-09-12T13:11:07;23.10;99.90
12111;DHT22;6119;52.372;8.990;2023-09-12T13:13:54;22.80;99.90
12111;DHT22;6119;52.372;8.990;2023-09-12T13:16:43;22.70;99.90
12111;DHT22;6119;52.372;8.990;2023-09-12T13:19:29;22.80;99.90
12111;DHT22;6119;52.372;8.990;2023-09-12T13:22:16;23.00;99.90
12111;DHT22;6119;52.372;8.990;2023-09-12T13:25:05;23.40;99.90
12111;DHT22;6119;52.372;8.990;2023-09-12T13:27:52;23.60;99.90
12111;DHT22;6119;52.372;8.990;2023-09-12T13:30:39;23.70;99.90
12111;DHT22;6119;52.372;8.990;2023-09-12T13:33:27;23.80;99.90
12111;DHT22;6119;52.372;8.990;2023-09-12T13:36:14;23.90;99.90
12111;DHT22;6119;52.372;8.990;2023-09-12T13:39:00;23.90;99.90
12111;DHT22;6119;52.372;8.990;2023-09-12T13:41:48;24.10;99.90
12111;DHT22;6119;52.372;8.990;2023-09-12T13:44:34;24.30;99.90
12111;DHT22;6119;52.372;8.990;2023-09-12T13:47:21;24.20;99.90
12111;DHT22;6119;52.372;8.990;2023-09-12T13:50:10;24.30;99.90
12111;DHT22;6119;52.372;8.990;2023-09-12T13:52:57;24.30;99.90
12111;DHT22;6119;52.372;8.990;2023-09-12T13:55:45;24.30;99.90
12111;DHT22;6119;52.372;8.990;2023-09-12T13:58:51;24.30;99.90
12111;DHT22;6119;52.372;8.990;2023-09-12T14:01:38;24.20;99.90
12111;DHT22;6119;52.372;8.990;2023-09-12T14:04:25;24.30;99.90
12111;DHT22;6119;52.372;8.990;2023-09-12T14:07:14;23.90;99.90
12111;DHT22;6119;52.372;8.990;2023-09-12T14:10:02;24.00;99.90
12111;DHT22;6119;52.372;8.990;2023-09-12T14:12:48;24.30;99.90
12111;DHT22;6119;52.372;8.990;2023-09-12T14:15:36;24.20;99.90
12111;DHT22;6119;52.372;8.990;2023-09-12T14:18:24;24.40;99.90
12111;DHT22;6119;52.372;8.990;2023-09-12T14:21:11;24.20;99.90
12111;DHT22;6119;52.372;8.990;2023-09-12T14:23:59;24.30;99.90
12111;DHT22;6119;52.372;8.990;2023-09-12T14:26:46;24.40;99.90
12111;DHT22;6119;52.372;8.990;2023-09-12T14:29:34;24.30;99.90
12111;DHT22;6119;52.372;8.990;2023-09-12T14:32:20;24.00;99.90
12111;DHT22;6119;52.372;8.990;2023-09-12T14:35:08;24.10;99.90
12111;DHT22;6119;52.372;8.990;2023-09-12T14:37:55;24.20;99.90
12111;DHT22;6119;52.372;8.990;2023-09-12T14:40:43;24.50;99.90
12111;DHT22;6119;52.372;8.990;2023-09-12T14:43:30;24.50;99.90
12111;DHT22;6119;52.372;8.990;2023-09-12T14:46:17;24.50;99.90
12111;DHT22;6119;52.372;8.990;2023-09-12T14:49:04;24.20;99.90
12111;DHT22;6119;52.372;8.990;2023-09-12T14:51:50;24.20;99.90
12111;DHT22;6119;52.372;8.990;2023-09-12T14:54:37;24.10;99.90
12111;DHT22;6119;52.372;8.990;2023-09-12T14:57:25;23.80;99.90
12111;DHT22;6119;52.372;8.990;2023-09-12T15:00:13;23.80;99.90
12111;DHT22;6119;52.372;8.990;2023-09-12T15:03:00;23.70;99.90
12111;DHT22;6119;52.372;8.990;2023-09-12T15:05:47;23.80;99.90
12111;DHT22;6119;52.372;8.990;2023-09-12T15:08:34;24.10;99.90
12111;DHT22;6119;52.372;8.990;2023-09-12T15:11:21;24.30;99.90
12111;DHT22;6119;52.372;8.990;2023-09-12T15:14:09;24.40;99.90
12111;DHT22;6119;52.372;8.990;2023-09-12T15:16:56;24.50;99.90
12111;DHT22;6119;52.372;8.990;2023-09-12T15:19:45;24.50;99.90
12111;DHT22;6119;52.372;8.990;2023-09-12T15:22:32;24.30;99.90
12111;DHT22;6119;52.372;8.990;2023-09-12T15:25:19;24.10;99.90
12111;DHT22;6119;52.372;8.990;2023-09-12T15:28:06;24.20;99.90
12111;DHT22;6119;52.372;8.990;2023-09-12T15:30:54;24.10;99.90
12111;DHT22;6119;52.372;8.990;2023-09-12T15:33:41;23.90;99.90
12111;DHT22;6119;52.372;8.990;2023-09-12T15:36:28;23.90;99.90
12111;DHT22;6119;52.372;8.990;2023-09-12T15:39:15;23.70;99.90
12111;DHT22;6119;52.372;8.990;2023-09-12T15:42:02;23.80;99.90
12111;DHT22;6119;52.372;8.990;2023-09-12T15:44:49;23.80;99.90
12111;DHT22;6119;52.372;8.990;2023-09-12T15:47:48;23.50;99.90
12111;DHT22;6119;52.372;8.990;2023-09-12T15:50:35;23.80;99.90
12111;DHT22;6119;52.372;8.990;2023-09-12T15:53:22;23.70;99.90
12111;DHT22;6119;52.372;8.990;2023-09-12T15:56:09;23.70;99.90
12111;DHT22;6119;52.372;8.990;2023-09-12T15:58:57;24.10;99.90
12111;DHT22;6119;52.372;8.990;2023-09-12T16:01:45;24.60;99.90
12111;DHT22;6119;52.372;8.990;2023-09-12T16:04:33;24.80;99.90
12111;DHT22;6119;52.372;8.990;2023-09-12T16:07:20;25.10;99.90
12111;DHT22;6119;52.372;8.990;2023-09-12T16:10:07;25.20;99.90
12111;DHT22;6119;52.372;8.990;2023-09-12T16:12:58;25.00;99.90
12111;DHT22;6119;52.372;8.990;2023-09-12T16:15:44;24.80;99.90
12111;DHT22;6119;52.372;8.990;2023-09-12T16:18:31;24.60;99.90
12111;DHT22;6119;52.372;8.990;2023-09-12T16:21:19;24.40;99.90
12111;DHT22;6119;52.372;8.990;2023-09-12T16:24:09;24.30;99.90
12111;DHT22;6119;52.372;8.990;2023-09-12T16:26:56;24.10;99.90
12111;DHT22;6119;52.372;8.990;2023-09-12T16:29:45;24.30;99.90
12111;DHT22;6119;52.372;8.990;2023-09-12T16:32:32;24.40;99.90
12111;DHT22;6119;52.372;8.990;2023-09-12T16:35:19;24.30;99.90
12111;DHT22;6119;52.372;8.990;2023-09-12T16:38:07;24.30;99.90
12111;DHT22;6119;52.372;8.990;2023-09-12T16:40:54;24.00;99.90
12111;DHT22;6119;52.372;8.990;2023-09-12T16:43:41;24.00;99.90
12111;DHT22;6119;52.372;8.990;2023-09-12T16:46:28;24.10;99.90
12111;DHT22;6119;52.372;8.990;2023-09-12T16:49:15;23.90;99.90
12111;DHT22;6119;52.372;8.990;2023-09-12T16:52:02;23.90;99.90
12111;DHT22;6119;52.372;8.990;2023-09-12T16:54:50;23.80;99.90
12111;DHT22;6119;52.372;8.990;2023-09-12T16:57:37;23.70;99.90
12111;DHT22;6119;52.372;8.990;2023-09-12T17:00:23;23.60;99.90
12111;DHT22;6119;52.372;8.990;2023-09-12T17:03:10;23.50;99.90
12111;DHT22;6119;52.372;8.990;2023-09-12T17:05:57;23.50;99.90
12111;DHT22;6119;52.372;8.990;2023-09-12T17:08:45;23.50;99.90
12111;DHT22;6119;52.372;8.990;2023-09-12T17:11:33;23.30;99.90
12111;DHT22;6119;52.372;8.990;2023-09-12T17:14:20;23.30;99.90
12111;DHT22;6119;52.372;8.990;2023-09-12T17:17:06;23.30;99.90
12111;DHT22;6119;52.372;8.990;2023-09-12T17:19:55;23.30;99.90
12111;DHT22;6119;52.372;8.990;2023-09-12T17:22:41;23.20;99.90
12111;DHT22;6119;52.372;8.990;2023-09-12T17:25:28;23.20;99.90
12111;DHT22;6119;52.372;8.990;2023-09-12T17:28:17;23.10;99.90
12111;DHT22;6119;52.372;8.990;2023-09-12T17:31:03;23.10;99.90
12111;DHT22;6119;52.372;8.990;2023-09-12T17:33:50;23.10;99.90
12111;DHT22;6119;52.372;8.990;2023-09-12T17:36:36;23.00;99.90
12111;DHT22;6119;52.372;8.990;2023-09-12T17:39:23;23.00;99.90
12111;DHT22;6119;52.372;8.990;2023-09-12T17:42:10;22.90;99.90
12111;DHT22;6119;52.372;8.990;2023-09-12T17:44:58;22.80;99.90
12111;DHT22;6119;52.372;8.990;2023-09-12T17:47:44;22.80;99.90
12111;DHT22;6119;52.372;8.990;2023-09-12T17:50:31;22.80;99.90
12111;DHT22;6119;52.372;8.990;2023-09-12T17:53:17;22.70;99.90
12111;DHT22;6119;52.372;8.990;2023-09-12T17:56:06;22.70;99.90
12111;DHT22;6119;52.372;8.990;2023-09-12T17:58:53;22.60;99.90
12111;DHT22;6119;52.372;8.990;2023-09-12T18:01:41;22.60;99.90